sensor_id;sensor_type;location;lat;lon;timestamp;P1;durP1;ratioP1;P2;durP2;ratioP2
19131;SDS011;9698;51.976;7.570;2023-04-24T00:01:03;1.37;;;1.27;;
19131;SDS011;9698;51.976;7.570;2023-04-24T00:03:33;2.73;;;2.13;;
19131;SDS011;9698;51.976;7.570;2023-04-24T00:06:02;1.97;;;1.50;;
19131;SDS011;9698;51.976;7.570;2023-04-24T00:08:31;2.53;;;1.87;;
19131;SDS011;9698;51.976;7.570;2023-04-24T00:10:59;1.97;;;1.60;;
19131;SDS011;9698;51.976;7.570;2023-04-24T00:13:27;2.77;;;2.00;;
19131;SDS011;9698;51.976;7.570;2023-04-24T00:15:55;2.67;;;1.47;;
19131;SDS011;9698;51.976;7.570;2023-04-24T00:18:23;3.27;;;1.57;;
19131;SDS011;9698;51.976;7.570;2023-04-24T00:20:51;1.97;;;1.60;;
19131;SDS011;9698;51.976;7.570;2023-04-24T00:23:18;1.50;;;1.40;;
19131;SDS011;9698;51.976;7.570;2023-04-24T00:25:46;2.20;;;1.40;;
19131;SDS011;9698;51.976;7.570;2023-04-24T00:28:14;1.40;;;1.30;;
19131;SDS011;9698;51.976;7.570;2023-04-24T00:30:42;2.57;;;1.40;;
19131;SDS011;9698;51.976;7.570;2023-04-24T00:33:10;2.33;;;1.60;;
19131;SDS011;9698;51.976;7.570;2023-04-24T00:35:37;3.07;;;2.60;;
19131;SDS011;9698;51.976;7.570;2023-04-24T00:38:06;2.47;;;1.30;;
19131;SDS011;9698;51.976;7.570;2023-04-24T00:40:34;2.70;;;2.13;;
19131;SDS011;9698;51.976;7.570;2023-04-24T00:43:02;1.67;;;1.10;;
19131;SDS011;9698;51.976;7.570;2023-04-24T00:45:30;2.40;;;2.20;;
19131;SDS011;9698;51.976;7.570;2023-04-24T00:47:58;1.20;;;1.13;;
19131;SDS011;9698;51.976;7.570;2023-04-24T00:50:28;2.07;;;1.83;;
19131;SDS011;9698;51.976;7.570;2023-04-24T00:52:56;1.30;;;1.20;;
19131;SDS011;9698;51.976;7.570;2023-04-24T00:55:25;1.90;;;1.63;;
19131;SDS011;9698;51.976;7.570;2023-04-24T00:57:53;1.70;;;1.33;;
19131;SDS011;9698;51.976;7.570;2023-04-24T01:00:21;2.07;;;1.67;;
19131;SDS011;9698;51.976;7.570;2023-04-24T01:02:49;1.67;;;1.33;;
19131;SDS011;9698;51.976;7.570;2023-04-24T01:05:18;3.30;;;1.30;;
19131;SDS011;9698;51.976;7.570;2023-04-24T01:07:46;2.37;;;1.70;;
19131;SDS011;9698;51.976;7.570;2023-04-24T01:10:15;2.47;;;1.53;;
19131;SDS011;9698;51.976;7.570;2023-04-24T01:12:43;2.30;;;1.30;;
19131;SDS011;9698;51.976;7.570;2023-04-24T01:15:12;1.80;;;1.70;;
19131;SDS011;9698;51.976;7.570;2023-04-24T01:17:40;2.57;;;1.70;;
19131;SDS011;9698;51.976;7.570;2023-04-24T01:20:09;1.77;;;1.40;;
19131;SDS011;9698;51.976;7.570;2023-04-24T01:22:37;1.93;;;1.83;;
19131;SDS011;9698;51.976;7.570;2023-04-24T01:25:06;2.80;;;1.80;;
19131;SDS011;9698;51.976;7.570;2023-04-24T01:27:35;2.47;;;2.23;;
19131;SDS011;9698;51.976;7.570;2023-04-24T01:30:04;1.40;;;1.30;;
19131;SDS011;9698;51.976;7.570;2023-04-24T01:32:34;2.50;;;2.30;;
19131;SDS011;9698;51.976;7.570;2023-04-24T01:35:04;1.40;;;1.30;;
19131;SDS011;9698;51.976;7.570;2023-04-24T01:37:34;2.27;;;2.07;;
19131;SDS011;9698;51.976;7.570;2023-04-24T01:40:04;2.00;;;1.70;;
19131;SDS011;9698;51.976;7.570;2023-04-24T01:42:33;2.53;;;2.17;;
19131;SDS011;9698;51.976;7.570;2023-04-24T01:45:03;1.70;;;1.47;;
19131;SDS011;9698;51.976;7.570;2023-04-24T01:47:32;3.43;;;2.13;;
19131;SDS011;9698;51.976;7.570;2023-04-24T01:50:00;2.03;;;1.40;;
19131;SDS011;9698;51.976;7.570;2023-04-24T01:52:28;2.37;;;2.17;;
19131;SDS011;9698;51.976;7.570;2023-04-24T01:54:59;1.67;;;1.50;;
19131;SDS011;9698;51.976;7.570;2023-04-24T01:57:27;2.70;;;2.27;;
19131;SDS011;9698;51.976;7.570;2023-04-24T01:59:56;1.63;;;1.50;;
19131;SDS011;9698;51.976;7.570;2023-04-24T02:02:24;2.07;;;1.90;;
19131;SDS011;9698;51.976;7.570;2023-04-24T02:04:55;2.57;;;1.83;;
19131;SDS011;9698;51.976;7.570;2023-04-24T02:07:23;2.53;;;1.80;;
19131;SDS011;9698;51.976;7.570;2023-04-24T02:09:51;2.37;;;1.90;;
19131;SDS011;9698;51.976;7.570;2023-04-24T02:12:18;3.07;;;1.60;;
19131;SDS011;9698;51.976;7.570;2023-04-24T02:14:46;2.37;;;1.70;;
19131;SDS011;9698;51.976;7.570;2023-04-24T02:17:14;2.00;;;1.80;;
19131;SDS011;9698;51.976;7.570;2023-04-24T02:19:42;2.20;;;2.00;;
19131;SDS011;9698;51.976;7.570;2023-04-24T02:22:10;2.03;;;1.80;;
19131;SDS011;9698;51.976;7.570;2023-04-24T02:24:38;3.17;;;2.47;;
19131;SDS011;9698;51.976;7.570;2023-04-24T02:27:06;2.77;;;2.10;;
19131;SDS011;9698;51.976;7.570;2023-04-24T02:29:35;3.57;;;2.33;;
19131;SDS011;9698;51.976;7.570;2023-04-24T02:32:02;3.33;;;2.63;;
19131;SDS011;9698;51.976;7.570;2023-04-24T02:34:30;3.33;;;2.83;;
19131;SDS011;9698;51.976;7.570;2023-04-24T02:36:58;2.37;;;2.17;;
19131;SDS011;9698;51.976;7.570;2023-04-24T02:39:26;2.67;;;2.43;;
19131;SDS011;9698;51.976;7.570;2023-04-24T02:41:54;4.50;;;2.60;;
19131;SDS011;9698;51.976;7.570;2023-04-24T02:44:22;2.80;;;2.27;;
19131;SDS011;9698;51.976;7.570;2023-04-24T02:46:49;3.47;;;2.40;;
19131;SDS011;9698;51.976;7.570;2023-04-24T02:49:17;2.60;;;2.20;;
19131;SDS011;9698;51.976;7.570;2023-04-24T02:51:45;4.20;;;2.80;;
19131;SDS011;9698;51.976;7.570;2023-04-24T02:54:13;4.07;;;2.80;;
19131;SDS011;9698;51.976;7.570;2023-04-24T02:56:40;3.90;;;3.50;;
19131;SDS011;9698;51.976;7.570;2023-04-24T02:59:08;4.40;;;3.70;;
19131;SDS011;9698;51.976;7.570;2023-04-24T03:01:36;6.13;;;3.90;;
19131;SDS011;9698;51.976;7.570;2023-04-24T03:04:04;4.03;;;3.63;;
19131;SDS011;9698;51.976;7.570;2023-04-24T03:06:32;4.90;;;3.97;;
19131;SDS011;9698;51.976;7.570;2023-04-24T03:09:01;4.23;;;3.63;;
19131;SDS011;9698;51.976;7.570;2023-04-24T03:11:29;7.20;;;4.47;;
19131;SDS011;9698;51.976;7.570;2023-04-24T03:13:57;5.03;;;4.40;;
19131;SDS011;9698;51.976;7.570;2023-04-24T03:16:25;5.03;;;4.17;;
19131;SDS011;9698;51.976;7.570;2023-04-24T03:18:53;4.77;;;4.30;;
19131;SDS011;9698;51.976;7.570;2023-04-24T03:21:20;8.20;;;4.70;;
19131;SDS011;9698;51.976;7.570;2023-04-24T03:23:49;6.57;;;4.80;;
19131;SDS011;9698;51.976;7.570;2023-04-24T03:26:16;7.27;;;5.20;;
19131;SDS011;9698;51.976;7.570;2023-04-24T03:28:44;6.33;;;5.53;;
19131;SDS011;9698;51.976;7.570;2023-04-24T03:31:12;6.80;;;5.50;;
19131;SDS011;9698;51.976;7.570;2023-04-24T03:33:41;9.37;;;6.43;;
19131;SDS011;9698;51.976;7.570;2023-04-24T03:36:09;6.57;;;5.73;;
19131;SDS011;9698;51.976;7.570;2023-04-24T03:38:37;8.50;;;7.00;;
19131;SDS011;9698;51.976;7.570;2023-04-24T03:41:04;8.20;;;6.17;;
19131;SDS011;9698;51.976;7.570;2023-04-24T03:43:32;8.40;;;7.50;;
19131;SDS011;9698;51.976;7.570;2023-04-24T03:46:00;8.50;;;6.60;;
19131;SDS011;9698;51.976;7.570;2023-04-24T03:48:29;10.23;;;8.17;;
19131;SDS011;9698;51.976;7.570;2023-04-24T03:50:57;9.10;;;7.30;;
19131;SDS011;9698;51.976;7.570;2023-04-24T03:53:24;9.17;;;7.73;;
19131;SDS011;9698;51.976;7.570;2023-04-24T03:55:53;9.73;;;8.00;;
19131;SDS011;9698;51.976;7.570;2023-04-24T03:58:21;8.30;;;7.17;;
19131;SDS011;9698;51.976;7.570;2023-04-24T04:00:49;10.57;;;8.00;;
19131;SDS011;9698;51.976;7.570;2023-04-24T04:03:17;15.33;;;8.20;;
19131;SDS011;9698;51.976;7.570;2023-04-24T04:05:45;8.93;;;7.37;;
19131;SDS011;9698;51.976;7.570;2023-04-24T04:08:13;10.77;;;7.97;;
19131;SDS011;9698;51.976;7.570;2023-04-24T04:10:41;12.27;;;8.83;;
19131;SDS011;9698;51.976;7.570;2023-04-24T04:13:09;8.83;;;7.80;;
19131;SDS011;9698;51.976;7.570;2023-04-24T04:15:36;10.90;;;9.33;;
19131;SDS011;9698;51.976;7.570;2023-04-24T04:18:04;10.83;;;8.10;;
19131;SDS011;9698;51.976;7.570;2023-04-24T04:20:32;11.83;;;9.63;;
19131;SDS011;9698;51.976;7.570;2023-04-24T04:23:00;10.10;;;8.93;;
19131;SDS011;9698;51.976;7.570;2023-04-24T04:25:28;11.93;;;9.57;;
19131;SDS011;9698;51.976;7.570;2023-04-24T04:27:56;10.63;;;8.73;;
19131;SDS011;9698;51.976;7.570;2023-04-24T04:30:25;12.20;;;9.70;;
19131;SDS011;9698;51.976;7.570;2023-04-24T04:32:55;11.27;;;9.20;;
19131;SDS011;9698;51.976;7.570;2023-04-24T04:35:23;14.37;;;9.33;;
19131;SDS011;9698;51.976;7.570;2023-04-24T04:37:51;12.87;;;9.20;;
19131;SDS011;9698;51.976;7.570;2023-04-24T04:40:19;12.57;;;9.97;;
19131;SDS011;9698;51.976;7.570;2023-04-24T04:42:48;11.43;;;9.67;;
19131;SDS011;9698;51.976;7.570;2023-04-24T04:45:19;12.63;;;10.40;;
19131;SDS011;9698;51.976;7.570;2023-04-24T04:47:47;13.87;;;10.17;;
19131;SDS011;9698;51.976;7.570;2023-04-24T04:50:15;14.93;;;9.83;;
19131;SDS011;9698;51.976;7.570;2023-04-24T04:52:45;12.93;;;10.67;;
19131;SDS011;9698;51.976;7.570;2023-04-24T04:55:13;14.13;;;10.80;;
19131;SDS011;9698;51.976;7.570;2023-04-24T04:57:41;16.30;;;12.10;;
19131;SDS011;9698;51.976;7.570;2023-04-24T05:00:10;15.57;;;11.23;;
19131;SDS011;9698;51.976;7.570;2023-04-24T05:02:40;14.60;;;11.10;;
19131;SDS011;9698;51.976;7.570;2023-04-24T05:05:08;16.60;;;11.30;;
19131;SDS011;9698;51.976;7.570;2023-04-24T05:07:36;15.43;;;12.30;;
19131;SDS011;9698;51.976;7.570;2023-04-24T05:10:06;15.60;;;11.63;;
19131;SDS011;9698;51.976;7.570;2023-04-24T05:12:35;17.57;;;11.90;;
19131;SDS011;9698;51.976;7.570;2023-04-24T05:15:03;16.50;;;12.00;;
19131;SDS011;9698;51.976;7.570;2023-04-24T05:17:32;17.50;;;12.37;;
19131;SDS011;9698;51.976;7.570;2023-04-24T05:20:00;14.57;;;11.70;;
19131;SDS011;9698;51.976;7.570;2023-04-24T05:22:31;18.63;;;13.57;;
19131;SDS011;9698;51.976;7.570;2023-04-24T05:24:59;16.17;;;12.97;;
19131;SDS011;9698;51.976;7.570;2023-04-24T05:27:27;18.63;;;12.83;;
19131;SDS011;9698;51.976;7.570;2023-04-24T05:29:55;16.83;;;11.90;;
19131;SDS011;9698;51.976;7.570;2023-04-24T05:32:22;18.17;;;12.43;;
19131;SDS011;9698;51.976;7.570;2023-04-24T05:34:50;15.17;;;11.50;;
19131;SDS011;9698;51.976;7.570;2023-04-24T05:37:18;16.90;;;12.17;;
19131;SDS011;9698;51.976;7.570;2023-04-24T05:39:46;19.17;;;12.87;;
19131;SDS011;9698;51.976;7.570;2023-04-24T05:42:14;14.13;;;11.93;;
19131;SDS011;9698;51.976;7.570;2023-04-24T05:44:42;17.63;;;12.60;;
19131;SDS011;9698;51.976;7.570;2023-04-24T05:47:10;15.43;;;11.63;;
19131;SDS011;9698;51.976;7.570;2023-04-24T05:49:37;15.50;;;11.60;;
19131;SDS011;9698;51.976;7.570;2023-04-24T05:52:05;15.00;;;11.27;;
19131;SDS011;9698;51.976;7.570;2023-04-24T05:54:34;14.50;;;11.93;;
19131;SDS011;9698;51.976;7.570;2023-04-24T05:57:02;16.90;;;12.23;;
19131;SDS011;9698;51.976;7.570;2023-04-24T05:59:33;14.20;;;11.53;;
19131;SDS011;9698;51.976;7.570;2023-04-24T06:02:03;14.33;;;11.73;;
19131;SDS011;9698;51.976;7.570;2023-04-24T06:04:32;14.77;;;11.57;;
19131;SDS011;9698;51.976;7.570;2023-04-24T06:07:01;17.97;;;11.00;;
19131;SDS011;9698;51.976;7.570;2023-04-24T06:09:29;13.73;;;11.40;;
19131;SDS011;9698;51.976;7.570;2023-04-24T06:11:57;12.13;;;10.53;;
19131;SDS011;9698;51.976;7.570;2023-04-24T06:14:26;14.80;;;10.80;;
19131;SDS011;9698;51.976;7.570;2023-04-24T06:16:54;12.93;;;9.90;;
19131;SDS011;9698;51.976;7.570;2023-04-24T06:19:22;12.30;;;9.87;;
19131;SDS011;9698;51.976;7.570;2023-04-24T06:21:50;12.67;;;10.53;;
19131;SDS011;9698;51.976;7.570;2023-04-24T06:24:39;12.47;;;10.10;;
19131;SDS011;9698;51.976;7.570;2023-04-24T06:29:53;13.50;;;10.10;;
19131;SDS011;9698;51.976;7.570;2023-04-24T06:32:22;11.20;;;9.47;;
19131;SDS011;9698;51.976;7.570;2023-04-24T06:34:51;12.43;;;9.43;;
19131;SDS011;9698;51.976;7.570;2023-04-24T06:37:19;11.30;;;9.70;;
19131;SDS011;9698;51.976;7.570;2023-04-24T06:39:47;12.10;;;9.97;;
19131;SDS011;9698;51.976;7.570;2023-04-24T06:42:15;12.93;;;10.50;;
19131;SDS011;9698;51.976;7.570;2023-04-24T06:44:43;14.40;;;11.00;;
19131;SDS011;9698;51.976;7.570;2023-04-24T06:47:11;14.23;;;10.57;;
19131;SDS011;9698;51.976;7.570;2023-04-24T06:49:39;12.43;;;10.67;;
19131;SDS011;9698;51.976;7.570;2023-04-24T06:52:08;10.50;;;9.43;;
19131;SDS011;9698;51.976;7.570;2023-04-24T06:54:36;13.13;;;10.20;;
19131;SDS011;9698;51.976;7.570;2023-04-24T06:57:04;12.10;;;8.90;;
19131;SDS011;9698;51.976;7.570;2023-04-24T06:59:32;12.40;;;10.00;;
19131;SDS011;9698;51.976;7.570;2023-04-24T07:01:59;9.57;;;8.57;;
19131;SDS011;9698;51.976;7.570;2023-04-24T07:04:27;9.27;;;8.20;;
19131;SDS011;9698;51.976;7.570;2023-04-24T07:06:55;10.40;;;8.60;;
19131;SDS011;9698;51.976;7.570;2023-04-24T07:09:24;9.30;;;8.37;;
19131;SDS011;9698;51.976;7.570;2023-04-24T07:11:53;9.03;;;8.03;;
19131;SDS011;9698;51.976;7.570;2023-04-24T07:14:22;9.77;;;8.37;;
19131;SDS011;9698;51.976;7.570;2023-04-24T07:16:50;9.00;;;8.20;;
19131;SDS011;9698;51.976;7.570;2023-04-24T07:19:18;9.83;;;8.47;;
19131;SDS011;9698;51.976;7.570;2023-04-24T07:21:46;12.27;;;8.87;;
19131;SDS011;9698;51.976;7.570;2023-04-24T07:24:14;9.80;;;8.77;;
19131;SDS011;9698;51.976;7.570;2023-04-24T07:26:42;10.10;;;9.10;;
19131;SDS011;9698;51.976;7.570;2023-04-24T07:29:12;9.33;;;8.13;;
19131;SDS011;9698;51.976;7.570;2023-04-24T07:31:41;9.60;;;8.60;;
19131;SDS011;9698;51.976;7.570;2023-04-24T07:34:09;11.40;;;7.97;;
19131;SDS011;9698;51.976;7.570;2023-04-24T07:36:37;11.33;;;8.60;;
19131;SDS011;9698;51.976;7.570;2023-04-24T07:39:04;8.50;;;7.40;;
19131;SDS011;9698;51.976;7.570;2023-04-24T07:41:32;9.60;;;8.57;;
19131;SDS011;9698;51.976;7.570;2023-04-24T07:44:00;8.27;;;7.33;;
19131;SDS011;9698;51.976;7.570;2023-04-24T07:46:28;7.63;;;6.93;;
19131;SDS011;9698;51.976;7.570;2023-04-24T07:48:57;10.53;;;7.17;;
19131;SDS011;9698;51.976;7.570;2023-04-24T07:51:39;7.77;;;6.73;;
19131;SDS011;9698;51.976;7.570;2023-04-24T07:54:07;7.03;;;6.33;;
19131;SDS011;9698;51.976;7.570;2023-04-24T07:56:35;8.80;;;7.47;;
19131;SDS011;9698;51.976;7.570;2023-04-24T07:59:05;7.50;;;6.37;;
19131;SDS011;9698;51.976;7.570;2023-04-24T08:01:33;7.23;;;6.53;;
19131;SDS011;9698;51.976;7.570;2023-04-24T08:04:01;6.50;;;5.90;;
19131;SDS011;9698;51.976;7.570;2023-04-24T08:06:29;6.27;;;5.67;;
19131;SDS011;9698;51.976;7.570;2023-04-24T08:08:58;5.93;;;5.33;;
19131;SDS011;9698;51.976;7.570;2023-04-24T08:11:27;6.00;;;5.40;;
19131;SDS011;9698;51.976;7.570;2023-04-24T08:13:54;5.60;;;5.00;;
19131;SDS011;9698;51.976;7.570;2023-04-24T08:16:23;5.60;;;5.10;;
19131;SDS011;9698;51.976;7.570;2023-04-24T08:18:51;5.40;;;4.90;;
19131;SDS011;9698;51.976;7.570;2023-04-24T08:21:19;5.70;;;5.10;;
19131;SDS011;9698;51.976;7.570;2023-04-24T08:23:47;4.73;;;4.27;;
19131;SDS011;9698;51.976;7.570;2023-04-24T08:26:16;5.53;;;4.67;;
19131;SDS011;9698;51.976;7.570;2023-04-24T08:28:44;5.80;;;5.30;;
19131;SDS011;9698;51.976;7.570;2023-04-24T08:31:12;5.93;;;4.70;;
19131;SDS011;9698;51.976;7.570;2023-04-24T08:33:40;6.33;;;5.47;;
19131;SDS011;9698;51.976;7.570;2023-04-24T08:36:08;5.63;;;5.03;;
19131;SDS011;9698;51.976;7.570;2023-04-24T08:38:36;5.90;;;5.30;;
19131;SDS011;9698;51.976;7.570;2023-04-24T08:41:04;6.20;;;5.10;;
19131;SDS011;9698;51.976;7.570;2023-04-24T08:43:34;5.33;;;4.83;;
19131;SDS011;9698;51.976;7.570;2023-04-24T08:46:03;5.37;;;4.50;;
19131;SDS011;9698;51.976;7.570;2023-04-24T08:48:37;7.23;;;5.50;;
19131;SDS011;9698;51.976;7.570;2023-04-24T08:51:08;6.83;;;5.13;;
19131;SDS011;9698;51.976;7.570;2023-04-24T08:53:37;6.53;;;5.20;;
19131;SDS011;9698;51.976;7.570;2023-04-24T08:56:05;5.30;;;4.80;;
19131;SDS011;9698;51.976;7.570;2023-04-24T08:58:33;4.90;;;4.50;;
19131;SDS011;9698;51.976;7.570;2023-04-24T09:01:01;5.17;;;4.17;;
19131;SDS011;9698;51.976;7.570;2023-04-24T09:03:31;5.53;;;5.03;;
19131;SDS011;9698;51.976;7.570;2023-04-24T09:06:01;5.23;;;4.27;;
19131;SDS011;9698;51.976;7.570;2023-04-24T09:08:30;4.57;;;4.17;;
19131;SDS011;9698;51.976;7.570;2023-04-24T09:10:59;5.37;;;3.53;;
19131;SDS011;9698;51.976;7.570;2023-04-24T09:13:29;4.23;;;3.83;;
19131;SDS011;9698;51.976;7.570;2023-04-24T09:15:58;3.93;;;3.17;;
19131;SDS011;9698;51.976;7.570;2023-04-24T09:18:26;4.53;;;3.63;;
19131;SDS011;9698;51.976;7.570;2023-04-24T09:20:57;5.13;;;3.70;;
19131;SDS011;9698;51.976;7.570;2023-04-24T09:23:28;3.60;;;3.30;;
19131;SDS011;9698;51.976;7.570;2023-04-24T09:25:57;4.20;;;3.80;;
19131;SDS011;9698;51.976;7.570;2023-04-24T09:28:27;3.73;;;3.33;;
19131;SDS011;9698;51.976;7.570;2023-04-24T09:31:06;4.50;;;3.90;;
19131;SDS011;9698;51.976;7.570;2023-04-24T09:33:35;4.80;;;4.40;;
19131;SDS011;9698;51.976;7.570;2023-04-24T09:36:04;4.30;;;3.50;;
19131;SDS011;9698;51.976;7.570;2023-04-24T09:38:36;4.33;;;3.47;;
19131;SDS011;9698;51.976;7.570;2023-04-24T09:41:05;3.97;;;3.57;;
19131;SDS011;9698;51.976;7.570;2023-04-24T09:43:35;4.87;;;4.20;;
19131;SDS011;9698;51.976;7.570;2023-04-24T09:46:05;4.03;;;3.60;;
19131;SDS011;9698;51.976;7.570;2023-04-24T09:48:35;5.47;;;3.60;;
19131;SDS011;9698;51.976;7.570;2023-04-24T09:51:05;3.80;;;3.40;;
19131;SDS011;9698;51.976;7.570;2023-04-24T09:53:36;4.10;;;3.37;;
19131;SDS011;9698;51.976;7.570;2023-04-24T09:56:07;4.70;;;2.80;;
19131;SDS011;9698;51.976;7.570;2023-04-24T10:01:29;3.40;;;3.10;;
19131;SDS011;9698;51.976;7.570;2023-04-24T10:03:58;4.73;;;3.00;;
19131;SDS011;9698;51.976;7.570;2023-04-24T10:06:31;3.50;;;3.20;;
19131;SDS011;9698;51.976;7.570;2023-04-24T10:09:01;3.53;;;2.87;;
19131;SDS011;9698;51.976;7.570;2023-04-24T10:11:30;3.53;;;3.20;;
19131;SDS011;9698;51.976;7.570;2023-04-24T10:13:58;3.53;;;3.20;;
19131;SDS011;9698;51.976;7.570;2023-04-24T10:16:27;3.53;;;3.23;;
19131;SDS011;9698;51.976;7.570;2023-04-24T10:18:55;4.03;;;3.23;;
19131;SDS011;9698;51.976;7.570;2023-04-24T10:21:25;3.90;;;3.20;;
19131;SDS011;9698;51.976;7.570;2023-04-24T10:23:54;3.73;;;3.33;;
19131;SDS011;9698;51.976;7.570;2023-04-24T10:26:22;3.67;;;2.90;;
19131;SDS011;9698;51.976;7.570;2023-04-24T10:28:51;3.47;;;2.83;;
19131;SDS011;9698;51.976;7.570;2023-04-24T10:31:20;4.30;;;3.47;;
19131;SDS011;9698;51.976;7.570;2023-04-24T10:33:49;4.27;;;2.90;;
19131;SDS011;9698;51.976;7.570;2023-04-24T10:36:19;4.27;;;3.20;;
19131;SDS011;9698;51.976;7.570;2023-04-24T10:39:10;4.33;;;3.10;;
19131;SDS011;9698;51.976;7.570;2023-04-24T10:41:40;4.93;;;4.07;;
19131;SDS011;9698;51.976;7.570;2023-04-24T10:44:09;5.63;;;3.80;;
19131;SDS011;9698;51.976;7.570;2023-04-24T10:46:39;6.67;;;5.27;;
19131;SDS011;9698;51.976;7.570;2023-04-24T10:49:11;6.27;;;4.90;;
19131;SDS011;9698;51.976;7.570;2023-04-24T10:51:47;7.50;;;5.53;;
19131;SDS011;9698;51.976;7.570;2023-04-24T10:54:23;5.57;;;4.37;;
19131;SDS011;9698;51.976;7.570;2023-04-24T10:56:52;4.90;;;4.03;;
19131;SDS011;9698;51.976;7.570;2023-04-24T11:00:09;6.47;;;3.93;;
19131;SDS011;9698;51.976;7.570;2023-04-24T11:02:41;10.87;;;5.43;;
19131;SDS011;9698;51.976;7.570;2023-04-24T11:05:16;4.40;;;4.00;;
19131;SDS011;9698;51.976;7.570;2023-04-24T11:10:59;4.50;;;3.90;;
19131;SDS011;9698;51.976;7.570;2023-04-24T11:16:31;4.80;;;3.93;;
19131;SDS011;9698;51.976;7.570;2023-04-24T11:19:02;5.40;;;4.00;;
19131;SDS011;9698;51.976;7.570;2023-04-24T11:21:31;4.57;;;4.03;;
19131;SDS011;9698;51.976;7.570;2023-04-24T11:24:25;4.77;;;4.00;;
19131;SDS011;9698;51.976;7.570;2023-04-24T11:26:55;8.07;;;3.77;;
19131;SDS011;9698;51.976;7.570;2023-04-24T11:29:37;5.30;;;3.60;;
19131;SDS011;9698;51.976;7.570;2023-04-24T11:32:26;4.37;;;3.60;;
19131;SDS011;9698;51.976;7.570;2023-04-24T11:34:57;4.67;;;3.97;;
19131;SDS011;9698;51.976;7.570;2023-04-24T11:37:44;4.27;;;3.67;;
19131;SDS011;9698;51.976;7.570;2023-04-24T11:40:34;3.10;;;2.80;;
19131;SDS011;9698;51.976;7.570;2023-04-24T11:43:04;3.77;;;2.90;;
19131;SDS011;9698;51.976;7.570;2023-04-24T11:45:34;3.53;;;3.00;;
19131;SDS011;9698;51.976;7.570;2023-04-24T11:48:03;4.27;;;2.67;;
19131;SDS011;9698;51.976;7.570;2023-04-24T11:50:31;4.63;;;3.00;;
19131;SDS011;9698;51.976;7.570;2023-04-24T11:52:59;6.23;;;3.10;;
19131;SDS011;9698;51.976;7.570;2023-04-24T11:55:28;3.77;;;3.00;;
19131;SDS011;9698;51.976;7.570;2023-04-24T11:57:57;4.50;;;3.00;;
19131;SDS011;9698;51.976;7.570;2023-04-24T12:00:26;7.57;;;3.30;;
19131;SDS011;9698;51.976;7.570;2023-04-24T12:03:04;5.33;;;3.20;;
19131;SDS011;9698;51.976;7.570;2023-04-24T12:05:34;6.17;;;3.77;;
19131;SDS011;9698;51.976;7.570;2023-04-24T12:08:03;5.93;;;3.23;;
19131;SDS011;9698;51.976;7.570;2023-04-24T12:10:33;5.50;;;3.53;;
19131;SDS011;9698;51.976;7.570;2023-04-24T12:13:02;7.17;;;4.20;;
19131;SDS011;9698;51.976;7.570;2023-04-24T12:15:31;7.33;;;4.10;;
19131;SDS011;9698;51.976;7.570;2023-04-24T12:17:59;8.53;;;4.00;;
19131;SDS011;9698;51.976;7.570;2023-04-24T12:20:29;7.77;;;3.70;;
19131;SDS011;9698;51.976;7.570;2023-04-24T12:22:59;8.37;;;3.77;;
19131;SDS011;9698;51.976;7.570;2023-04-24T12:25:29;5.83;;;3.60;;
19131;SDS011;9698;51.976;7.570;2023-04-24T12:28:09;6.80;;;4.20;;
19131;SDS011;9698;51.976;7.570;2023-04-24T12:30:39;8.17;;;4.70;;
19131;SDS011;9698;51.976;7.570;2023-04-24T12:33:10;5.77;;;3.50;;
19131;SDS011;9698;51.976;7.570;2023-04-24T12:35:40;10.67;;;4.83;;
19131;SDS011;9698;51.976;7.570;2023-04-24T12:38:09;8.17;;;4.30;;
19131;SDS011;9698;51.976;7.570;2023-04-24T12:40:39;8.80;;;4.23;;
19131;SDS011;9698;51.976;7.570;2023-04-24T12:43:13;6.63;;;4.03;;
19131;SDS011;9698;51.976;7.570;2023-04-24T12:45:41;6.13;;;4.33;;
19131;SDS011;9698;51.976;7.570;2023-04-24T12:48:11;9.93;;;3.83;;
19131;SDS011;9698;51.976;7.570;2023-04-24T12:50:40;11.67;;;4.87;;
19131;SDS011;9698;51.976;7.570;2023-04-24T12:53:12;6.43;;;4.77;;
19131;SDS011;9698;51.976;7.570;2023-04-24T12:55:40;7.13;;;4.33;;
19131;SDS011;9698;51.976;7.570;2023-04-24T12:58:08;8.13;;;4.07;;
19131;SDS011;9698;51.976;7.570;2023-04-24T13:00:36;7.20;;;4.23;;
19131;SDS011;9698;51.976;7.570;2023-04-24T13:03:04;5.67;;;4.00;;
19131;SDS011;9698;51.976;7.570;2023-04-24T13:05:33;8.20;;;4.63;;
19131;SDS011;9698;51.976;7.570;2023-04-24T13:08:01;8.00;;;3.43;;
19131;SDS011;9698;51.976;7.570;2023-04-24T13:10:29;6.97;;;3.60;;
19131;SDS011;9698;51.976;7.570;2023-04-24T13:12:57;6.83;;;3.70;;
19131;SDS011;9698;51.976;7.570;2023-04-24T13:15:26;8.63;;;4.53;;
19131;SDS011;9698;51.976;7.570;2023-04-24T13:17:54;8.63;;;3.70;;
19131;SDS011;9698;51.976;7.570;2023-04-24T13:20:23;7.63;;;4.03;;
19131;SDS011;9698;51.976;7.570;2023-04-24T13:22:52;6.47;;;3.47;;
19131;SDS011;9698;51.976;7.570;2023-04-24T13:25:21;5.87;;;3.53;;
19131;SDS011;9698;51.976;7.570;2023-04-24T13:27:51;7.33;;;4.20;;
19131;SDS011;9698;51.976;7.570;2023-04-24T13:33:05;5.93;;;3.47;;
19131;SDS011;9698;51.976;7.570;2023-04-24T13:35:34;9.17;;;4.20;;
19131;SDS011;9698;51.976;7.570;2023-04-24T13:38:02;5.40;;;3.83;;
19131;SDS011;9698;51.976;7.570;2023-04-24T13:40:33;10.77;;;3.73;;
19131;SDS011;9698;51.976;7.570;2023-04-24T13:43:01;4.90;;;3.80;;
19131;SDS011;9698;51.976;7.570;2023-04-24T13:45:30;4.40;;;3.37;;
19131;SDS011;9698;51.976;7.570;2023-04-24T13:47:58;7.13;;;3.20;;
19131;SDS011;9698;51.976;7.570;2023-04-24T13:50:28;5.77;;;3.17;;
19131;SDS011;9698;51.976;7.570;2023-04-24T13:52:56;6.60;;;2.90;;
19131;SDS011;9698;51.976;7.570;2023-04-24T13:55:28;3.73;;;2.77;;
19131;SDS011;9698;51.976;7.570;2023-04-24T13:57:58;3.00;;;2.20;;
19131;SDS011;9698;51.976;7.570;2023-04-24T14:00:27;5.20;;;2.77;;
19131;SDS011;9698;51.976;7.570;2023-04-24T14:02:57;5.47;;;2.80;;
19131;SDS011;9698;51.976;7.570;2023-04-24T14:05:26;3.40;;;2.20;;
19131;SDS011;9698;51.976;7.570;2023-04-24T14:07:54;2.80;;;2.50;;
19131;SDS011;9698;51.976;7.570;2023-04-24T14:10:23;4.13;;;2.23;;
19131;SDS011;9698;51.976;7.570;2023-04-24T14:12:51;4.83;;;2.20;;
19131;SDS011;9698;51.976;7.570;2023-04-24T14:15:19;3.60;;;2.57;;
19131;SDS011;9698;51.976;7.570;2023-04-24T14:17:48;2.83;;;2.30;;
19131;SDS011;9698;51.976;7.570;2023-04-24T14:20:16;3.27;;;1.97;;
19131;SDS011;9698;51.976;7.570;2023-04-24T14:22:44;3.80;;;2.77;;
19131;SDS011;9698;51.976;7.570;2023-04-24T14:25:12;3.17;;;1.87;;
19131;SDS011;9698;51.976;7.570;2023-04-24T14:27:41;4.53;;;2.37;;
19131;SDS011;9698;51.976;7.570;2023-04-24T14:30:09;3.30;;;2.10;;
19131;SDS011;9698;51.976;7.570;2023-04-24T14:32:38;3.20;;;2.33;;
19131;SDS011;9698;51.976;7.570;2023-04-24T14:35:08;2.53;;;1.80;;
19131;SDS011;9698;51.976;7.570;2023-04-24T14:37:36;2.97;;;2.20;;
19131;SDS011;9698;51.976;7.570;2023-04-24T14:40:08;4.90;;;2.30;;
19131;SDS011;9698;51.976;7.570;2023-04-24T14:43:18;4.03;;;1.70;;
19131;SDS011;9698;51.976;7.570;2023-04-24T14:45:46;2.57;;;2.37;;
19131;SDS011;9698;51.976;7.570;2023-04-24T14:48:14;2.20;;;1.90;;
19131;SDS011;9698;51.976;7.570;2023-04-24T14:50:42;4.27;;;3.03;;
19131;SDS011;9698;51.976;7.570;2023-04-24T14:53:11;3.57;;;2.17;;
19131;SDS011;9698;51.976;7.570;2023-04-24T14:55:41;4.27;;;3.23;;
19131;SDS011;9698;51.976;7.570;2023-04-24T14:58:09;2.90;;;2.00;;
19131;SDS011;9698;51.976;7.570;2023-04-24T15:00:37;6.67;;;2.43;;
19131;SDS011;9698;51.976;7.570;2023-04-24T15:03:05;2.17;;;1.93;;
19131;SDS011;9698;51.976;7.570;2023-04-24T15:05:33;2.17;;;1.97;;
19131;SDS011;9698;51.976;7.570;2023-04-24T15:08:02;3.67;;;2.17;;
19131;SDS011;9698;51.976;7.570;2023-04-24T15:10:30;4.70;;;2.10;;
19131;SDS011;9698;51.976;7.570;2023-04-24T15:12:58;2.80;;;2.00;;
19131;SDS011;9698;51.976;7.570;2023-04-24T15:15:27;2.70;;;2.10;;
19131;SDS011;9698;51.976;7.570;2023-04-24T15:17:55;4.50;;;2.30;;
19131;SDS011;9698;51.976;7.570;2023-04-24T15:20:23;4.23;;;1.90;;
19131;SDS011;9698;51.976;7.570;2023-04-24T15:22:51;5.87;;;2.60;;
19131;SDS011;9698;51.976;7.570;2023-04-24T15:25:19;2.83;;;1.97;;